KSGR/SGR METAR and TAF weather

Enter ICAO airport designator
Station Type Date Time Source
KSGR METAR 2019/04/25 11:53 UTC NOAA

KSGR 251153Z 29005KT 9SM CLR 17/16 A2981 RMK AO2 SLP096 60001 70005 T01670161 10194 20167 53012


Station Type Date Time Source
KSGR Decoded METAR 2019/04/25 11:53 UTC NOAA

SUGARLAND REGIONAL AIRPORT, TX, United States (KSGR) 29-37N 095-39W
Apr 25, 2019 - 07:53 AM EDT / 2019.04.25 1153 UTC
Wind: from the WNW (290 degrees) at 6 MPH (5 KT):0
Visibility: 9 mile(s):0
Sky conditions: clear
Temperature: 62.1 F (16.7 C)
Dew Point: 61.0 F (16.1 C)
Relative Humidity: 96%
Pressure (altimeter): 29.81 in. Hg (1009 hPa)
Pressure tendency: 0.04 inches (1.2 hPa) higher than three hours ago
ob: KSGR 251153Z 29005KT 9SM CLR 17/16 A2981 RMK AO2 SLP096 60001 70005 T01670161 10194 20167 53012
cycle: 12

Station Type Date Time Source
KSGR TAF 2019/04/25 12:30 UTC NOAA

TAF KSGR 251129Z 2512/2612 32004KT P6SM FEW050
FM251330 33008KT P6SM SKC

Example: see airport list